SBMO - SBJP

Guest
Details From SBMO - Zumbi Dos Palmares
To SBJP - Presidente Castro Pinto
Flight Number -
Tags generated
Created
Modified
Stats Distance 151 nm / 280 km
Max Altitude 15,900 ft / 4,846 m
Waypoints 3
Social Downloads 2
Likes 0
Share VATSIM

Download

Looking for another format? Having issues loading an existing format? Contact us
Advertisement - Login to hide

Notes

Basic altitude profile: - Ascent Rate: 2500ft/min - Ascent Speed: 250kts - Cruise Altitude: 35000ft - Cruise Speed: 420kts - Descent Rate: 1500ft/min - Descent Speed: 250kts Options: - Use NATs: yes - Use PACOTS: yes - Use low airways: yes - Use high airways: yes

Route

SBMO POTRO SBJP

ID Type Via Altitude Latitude Longitude Leg Dist Tot Dist Heading (true) Name
O SBMO APT - 0 ft / 0 m -9.51081˚ -35.79168˚ - 0 nm - Zumbi Dos Palmares
POTRO FIX - 15,900 ft / 4,846 m -8.80833˚ -35.42917˚ 47 nm 47 nm 27° / 27° -
O SBJP APT - 0 ft / 0 m -7.14838˚ -34.95068˚ 103 nm 151 nm 16° / 16° Presidente Castro Pinto

Altitude Profile

SBMO

Details ICAO SBMO (MCZ)
Name Zumbi Dos Palmares
Region Brazil
Timezone America/Maceio (UTC-3.0)
Stats Elevation 387 ft / 118 m (AMSL)
Location -9.510808° -35.791677°
Runways 1
Magnetic Variation 22.617° W

METAR

SBMO 101200Z 06011KT 9999 SCT020 29/20 Q1013

Decode

TAF

TAF SBMO 101000Z 1012/1112 09014KT 9999 SCT020 TX31/1015Z TN23/1107Z BECMG 1018/1020 08007KT RMK PCH

Decode

Departure Runways

ID Width Length Bearing (true) Bearing (mag) Surface Threshold Offset Overrun Length
12 148 ft / 45 m 8,528 ft / 2,599 m 100.73° 123.35° Asphalt 0 ft / 0 m 210 ft / 64 m
30 148 ft / 45 m 8,528 ft / 2,599 m 280.73° 303.35° Asphalt 0 ft / 0 m 210 ft / 64 m

SBJP

Details ICAO SBJP (JPA)
Name Presidente Castro Pinto
Region Brazil
Timezone America/Fortaleza (UTC-3.0)
Stats Elevation 215 ft / 66 m (AMSL)
Location -7.148382° -34.950680°
Runways 1
Magnetic Variation 21.804° W

METAR

SBJP 101100Z 12006KT 070V180 9999 SCT025 28/22 Q1013

Decode

TAF

TAF SBJP 100400Z 1006/1106 08005KT 9999 SCT020 TN24/1007Z TX31/1015Z BECMG 1009/1011 09012KT BKN025 BECMG 1014/1016 SCT025 BECMG1020/1022 09005KT RMK PCH

Decode

Destination Runways

ID Width Length Bearing (true) Bearing (mag) Surface Threshold Offset Overrun Length
16 148 ft / 45 m 8,282 ft / 2,524 m 135.67° 157.47° Asphalt 0 ft / 0 m 0 ft / 0 m
34 148 ft / 45 m 8,282 ft / 2,524 m 315.67° 337.47° Asphalt 0 ft / 0 m 200 ft / 61 m

Popular Alternatives